Time;durP1;ratioP1;P1;durP2;ratioP2;P2;SDS_P1;SDS_P2;PMS_P1;PMS_P2;Temp;Humidity;BMP_temperature;BMP_pressure;BME280_temperature;BME280_humidity;BME280_pressure;Samples;Min_cycle;Max_cycle;Signal;HPM_P1;HPM_P2
2021/08/31 00:00:13;;;;;;;;;16.33;11.67;;;;;19.30;60.66;101962.91;5096722;27;47050;-92
2021/08/31 00:02:41;;;;;;;;;13.00;12.67;;;;;19.47;60.61;101996.69;5080164;28;45447;-91
2021/08/31 00:05:11;;;;;;;;;12.67;11.33;;;;;19.38;60.78;101987.78;5061504;28;45359;-92
2021/08/31 00:07:38;;;;;;;;;13.67;12.33;;;;;19.29;60.94;101975.34;5078765;28;45585;-92
2021/08/31 00:10:06;;;;;;;;;12.67;10.00;;;;;19.38;60.71;101992.22;5078524;28;47274;-94
2021/08/31 00:12:31;;;;;;;;;16.00;13.00;;;;;19.34;60.59;101983.34;5079771;28;45334;-91
2021/08/31 00:14:57;;;;;;;;;12.33;12.33;;;;;19.39;60.33;101992.25;5077625;28;45338;-93
2021/08/31 00:17:22;;;;;;;;;18.00;12.33;;;;;19.28;60.60;101973.56;5061737;27;45403;-92
2021/08/31 00:19:48;;;;;;;;;16.67;13.00;;;;;19.25;60.46;101976.22;5079231;27;46027;-93
2021/08/31 00:22:13;;;;;;;;;9.67;8.33;;;;;19.28;60.21;101983.34;5078339;27;45289;-91
2021/08/31 00:24:42;;;;;;;;;19.67;15.33;;;;;19.18;60.61;101969.13;5068134;28;45358;-92
2021/08/31 00:27:11;;;;;;;;;13.67;13.00;;;;;19.24;60.56;101984.22;5075931;28;45430;-92
2021/08/31 00:29:38;;;;;;;;;14.33;10.67;;;;;19.15;60.80;101969.09;5080005;28;47192;-91
2021/08/31 00:32:05;;;;;;;;;15.00;13.00;;;;;19.13;60.94;101965.50;5067787;27;45406;-93
2021/08/31 00:34:30;;;;;;;;;12.33;11.00;;;;;19.28;60.60;101992.22;5082439;28;45327;-92
2021/08/31 00:36:56;;;;;;;;;13.33;11.00;;;;;19.14;60.65;101969.97;5062699;28;45493;-92
2021/08/31 00:39:31;;;;;;;;;;;;;;;;;;;;;
2021/08/31 00:41:57;;;;;;;;;10.67;10.33;;;;;19.15;60.82;101977.09;5081545;28;71734;-92
2021/08/31 00:44:29;;;;;;;;;13.33;8.67;;;;;19.26;60.46;101999.34;5084482;28;45503;-91
2021/08/31 00:46:56;;;;;;;;;15.67;12.67;;;;;19.19;60.86;101992.22;5071343;28;45411;-92
2021/08/31 00:49:24;;;;;;;;;12.00;10.67;;;;;19.18;60.67;101991.34;5087976;28;45322;-91
2021/08/31 00:51:53;;;;;;;;;11.33;11.00;;;;;19.19;60.77;101993.09;5087427;28;45343;-91
2021/08/31 00:54:22;;;;;;;;;11.00;9.33;;;;;19.05;60.87;101958.41;5091418;28;45413;-91
2021/08/31 00:56:52;;;;;;;;;15.00;13.00;;;;;19.07;60.95;101966.41;5090655;28;45404;-91
2021/08/31 00:59:19;;;;;;;;;14.00;12.00;;;;;19.05;60.81;101952.19;5091848;28;47123;-91
2021/08/31 01:01:51;;;;;;;;;10.67;9.33;;;;;19.06;60.58;101965.50;5076333;28;44946;-91
2021/08/31 01:04:24;;;;;;;;;16.00;10.00;;;;;19.21;60.77;101985.09;5106225;28;44661;-91
2021/08/31 01:06:53;;;;;;;;;11.00;9.00;;;;;19.20;60.81;101994.00;5089369;27;44908;-91
2021/08/31 01:09:22;;;;;;;;;14.67;14.00;;;;;19.05;61.00;101974.41;5106987;27;47420;-91
2021/08/31 01:11:51;;;;;;;;;12.00;8.67;;;;;19.18;60.98;101996.69;5091548;27;44995;-91
2021/08/31 01:14:17;;;;;;;;;10.33;8.00;;;;;19.03;60.80;101976.19;5108411;27;45192;-91
2021/08/31 01:16:44;;;;;;;;;16.33;11.33;;;;;19.07;60.87;101982.38;5090971;27;44900;-91
2021/08/31 01:19:11;;;;;;;;;17.33;13.00;;;;;19.03;60.99;101984.16;5109123;27;45319;-91
2021/08/31 01:21:37;;;;;;;;;18.00;11.67;;;;;18.98;60.94;101972.59;5108935;27;44781;-91
2021/08/31 01:24:03;;;;;;;;;13.67;10.67;;;;;19.12;60.93;102001.06;5107549;27;44773;-90
2021/08/31 01:26:28;;;;;;;;;9.33;9.33;;;;;19.06;61.00;101996.59;5085512;28;45366;-89
2021/08/31 01:28:54;;;;;;;;;9.00;7.33;;;;;19.06;60.91;102005.47;5101469;27;47140;-90
2021/08/31 01:31:20;;;;;;;;;12.33;10.67;;;;;19.00;60.99;101996.56;5103375;28;45526;-86
2021/08/31 01:33:45;;;;;;;;;11.33;8.00;;;;;18.87;61.13;101975.22;5085530;28;44768;-90
2021/08/31 01:36:14;;;;;;;;;10.33;9.33;;;;;19.01;61.45;102003.69;5102836;28;44730;-90
2021/08/31 01:38:50;;;;;;;;;7.00;7.00;;;;;18.90;60.96;101979.69;5085129;28;46483;-90
2021/08/31 01:41:16;;;;;;;;;10.67;8.67;;;;;18.83;61.20;101979.66;5097198;28;45556;-91
2021/08/31 01:43:42;;;;;;;;;9.33;7.00;;;;;18.89;61.34;101983.25;5067568;27;45466;-91
2021/08/31 01:46:08;;;;;;;;;8.00;8.00;;;;;18.83;61.23;101982.34;5082845;27;45593;-90
2021/08/31 01:48:34;;;;;;;;;12.33;8.00;;;;;18.86;61.19;101995.69;5065671;28;48053;-90
2021/08/31 01:50:59;;;;;;;;;9.67;9.33;;;;;18.89;61.18;102000.09;5082689;28;45558;-91
2021/08/31 01:53:27;;;;;;;;;10.00;7.67;;;;;18.84;61.21;101997.44;5085311;27;45437;-90
2021/08/31 01:55:53;;;;;;;;;12.00;9.33;;;;;18.84;61.24;102001.88;5083380;27;45474;-90
2021/08/31 01:58:18;;;;;;;;;12.33;6.67;;;;;18.69;61.35;101984.06;5082672;27;46961;-91
2021/08/31 02:00:47;;;;;;;;;6.33;6.33;;;;;18.75;61.28;101992.06;5063507;28;45360;-91
2021/08/31 02:03:13;;;;;;;;;10.33;6.67;;;;;18.77;61.51;102006.28;5080971;28;45290;-91
2021/08/31 02:05:38;;;;;;;;;8.67;7.00;;;;;18.67;61.31;101988.50;5081315;27;45415;-90
2021/08/31 02:08:04;;;;;;;;;5.67;5.67;;;;;18.77;61.63;102005.41;5063257;28;47171;-91
2021/08/31 02:10:33;;;;;;;;;7.67;6.00;;;;;18.66;61.24;101990.28;5079906;27;45383;-89
2021/08/31 02:12:58;;;;;;;;;8.00;7.67;;;;;18.63;61.19;101993.81;5063281;27;45395;-91
2021/08/31 02:15:24;;;;;;;;;10.00;6.33;;;;;18.71;61.57;102000.94;5081584;28;45219;-90
2021/08/31 02:17:49;;;;;;;;;11.67;9.00;;;;;18.59;61.77;101985.81;5063674;28;46069;-90
2021/08/31 02:20:15;;;;;;;;;11.67;6.00;;;;;18.68;61.71;102000.91;5068977;28;45416;-89
2021/08/31 02:22:41;;;;;;;;;9.33;7.67;;;;;18.61;61.47;101997.38;5077353;28;45548;-90
2021/08/31 02:25:08;;;;;;;;;11.67;7.00;;;;;18.63;61.83;101996.47;5078421;28;44844;-89
2021/08/31 02:27:34;;;;;;;;;8.33;8.00;;;;;18.72;61.50;102008.94;5092850;28;47676;-89
2021/08/31 02:30:00;;;;;;;;;7.33;5.67;;;;;18.65;61.43;102006.25;5076997;28;45638;-89
2021/08/31 02:32:27;;;;;;;;;10.33;8.67;;;;;18.53;61.48;101986.66;5093712;28;44839;-90
2021/08/31 02:34:56;;;;;;;;;8.67;7.00;;;;;18.54;61.84;101996.44;5092882;28;45165;-90
2021/08/31 02:37:21;;;;;;;;;8.00;6.33;;;;;18.60;61.63;102009.78;5065960;28;47204;-89
2021/08/31 02:39:47;;;;;;;;;9.00;7.00;;;;;18.63;61.79;102008.91;5082505;28;45425;-89
2021/08/31 02:42:12;;;;;;;;;9.00;7.67;;;;;18.58;61.92;101994.69;5064869;28;45466;-92
2021/08/31 02:44:38;;;;;;;;;8.00;8.00;;;;;18.52;61.87;101988.47;5082132;28;45448;-91
2021/08/31 02:47:04;;;;;;;;;11.33;9.00;;;;;18.49;61.88;101987.53;5061772;28;47057;-90
2021/08/31 02:49:29;;;;;;;;;10.00;7.67;;;;;18.63;61.87;102015.09;5080950;28;45424;-90
2021/08/31 02:51:55;;;;;;;;;11.00;9.00;;;;;18.58;61.98;102000.91;5062186;28;45338;-90
2021/08/31 02:54:20;;;;;;;;;10.33;8.00;;;;;18.44;61.84;101982.22;5079376;28;45477;-91
2021/08/31 02:56:46;;;;;;;;;7.00;7.00;;;;;18.55;61.85;102000.00;5061764;28;47940;-91
2021/08/31 02:59:14;;;;;;;;;8.00;8.00;;;;;18.44;61.84;101981.31;5078994;27;46090;-91
2021/08/31 03:04:24;;;;;;;;;10.67;8.33;;;;;18.50;62.20;101986.66;5082168;27;45315;-92
2021/08/31 03:06:49;;;;;;;;;11.00;9.33;;;;;18.47;62.38;101991.97;5064253;28;48225;-90
2021/08/31 03:09:17;;;;;;;;;11.33;6.67;;;;;18.45;62.15;101986.63;5079836;27;45315;-91
2021/08/31 03:11:43;;;;;;;;;8.00;8.00;;;;;18.47;61.98;101981.31;5078948;27;45473;-92
2021/08/31 03:14:09;;;;;;;;;9.33;7.67;;;;;18.47;61.93;101986.63;5062571;28;45530;-91
2021/08/31 03:16:34;;;;;;;;;11.00;8.33;;;;;18.57;62.03;101996.44;5060541;28;48558;-92
2021/08/31 03:19:04;;;;;;;;;9.67;9.67;;;;;18.56;62.00;102001.78;5061633;28;45570;-91
2021/08/31 03:21:30;;;;;;;;;9.33;9.33;;;;;18.44;62.01;101982.22;5080368;27;45181;-91
2021/08/31 03:23:59;;;;;;;;;12.00;11.00;;;;;18.42;61.77;101976.00;5061768;28;45313;-92
2021/08/31 03:26:26;;;;;;;;;12.00;10.33;;;;;18.41;62.00;101982.19;5061531;27;47953;-91
2021/08/31 03:28:52;;;;;;;;;14.00;10.67;;;;;18.48;62.00;102001.75;5062020;28;45435;-91
2021/08/31 03:31:17;;;;;;;;;12.00;11.33;;;;;18.38;62.12;101983.03;5061120;28;45794;-91
2021/08/31 03:33:42;;;;;;;;;13.67;9.67;;;;;18.42;62.23;101985.75;5061488;28;45257;-90
2021/08/31 03:36:08;;;;;;;;;11.00;8.00;;;;;18.47;62.03;101997.28;5077735;28;48133;-91
2021/08/31 03:38:34;;;;;;;;;11.67;10.67;;;;;18.38;62.46;101987.50;5079670;27;45318;-91
2021/08/31 03:41:02;;;;;;;;;13.33;11.00;;;;;18.51;62.22;102009.72;5079177;27;45464;-91
2021/08/31 03:43:27;;;;;;;;;9.67;9.00;;;;;18.43;62.06;101995.50;5061596;28;45511;-91
2021/08/31 03:45:53;;;;;;;;;11.33;8.00;;;;;18.50;61.97;101994.66;5079227;27;46452;-90
2021/08/31 03:48:20;;;;;;;;;12.33;11.67;;;;;18.60;62.15;102020.44;5061462;28;45411;-91
2021/08/31 03:50:46;;;;;;;;;17.00;11.67;;;;;18.53;62.21;101997.31;5061447;28;45270;-91
2021/08/31 03:53:11;;;;;;;;;11.33;9.67;;;;;18.52;61.77;102003.53;5061787;28;45474;-91
2021/08/31 03:55:37;;;;;;;;;13.00;10.67;;;;;18.58;61.80;102015.97;5080019;28;45189;-90
2021/08/31 03:58:06;;;;;;;;;13.67;12.00;;;;;18.59;61.86;102017.78;5077889;28;45298;-91
2021/08/31 04:00:33;;;;;;;;;15.00;12.00;;;;;18.49;61.72;101999.09;5077977;28;45438;-90
2021/08/31 04:03:01;;;;;;;;;11.00;9.67;;;;;18.45;62.08;101999.06;5078081;28;45493;-90
2021/08/31 04:05:27;;;;;;;;;12.33;11.00;;;;;18.49;62.03;102000.84;5077859;27;48132;-91
2021/08/31 04:07:52;;;;;;;;;15.67;12.33;;;;;18.60;61.96;102020.44;5060848;28;45444;-90
2021/08/31 04:10:24;;;;;;;;;16.00;13.33;;;;;18.56;61.88;102017.75;5061196;28;45384;-91
2021/08/31 04:12:50;;;;;;;;;15.00;13.00;;;;;18.56;61.96;102015.09;5061500;28;45390;-91
2021/08/31 04:15:15;;;;;;;;;15.33;13.00;;;;;18.45;62.13;102002.63;5078401;28;47335;-91
2021/08/31 04:17:41;;;;;;;;;13.33;10.67;;;;;18.48;61.75;101999.97;5063276;28;45228;-90
2021/08/31 04:20:10;;;;;;;;;9.33;9.33;;;;;18.46;62.07;102001.75;5072361;28;44680;-90
2021/08/31 04:22:36;;;;;;;;;12.33;12.00;;;;;18.59;61.88;102023.09;5065026;28;45477;-90
2021/08/31 04:25:02;;;;;;;;;17.00;14.00;;;;;18.57;61.79;102019.53;5061073;28;48073;-90
2021/08/31 04:27:27;;;;;;;;;14.00;13.67;;;;;18.60;61.76;102036.41;5063189;28;45448;-91
2021/08/31 04:29:53;;;;;;;;;16.67;11.67;;;;;18.50;61.88;102013.28;5084260;27;45359;-91
2021/08/31 04:32:18;;;;;;;;;14.33;12.67;;;;;18.59;62.02;102033.75;5078116;28;45530;-90
2021/08/31 04:34:51;;;;;;;;;14.67;11.67;;;;;18.54;61.86;102017.75;5080796;28;46587;-91
2021/08/31 04:37:17;;;;;;;;;15.67;11.67;;;;;18.62;62.05;102034.66;5099640;27;44788;-91
2021/08/31 04:39:44;;;;;;;;;18.00;15.67;;;;;18.58;62.01;102027.53;5086338;27;45391;-91
2021/08/31 04:42:10;;;;;;;;;20.33;17.00;;;;;18.61;61.68;102026.66;5066200;27;45402;-91
2021/08/31 04:44:36;;;;;;;;;17.67;15.00;;;;;18.68;62.36;102040.88;5081878;28;47480;-90
2021/08/31 04:47:02;;;;;;;;;17.67;16.33;;;;;18.50;61.62;102008.88;5082980;27;45267;-90
2021/08/31 04:49:28;;;;;;;;;14.33;12.67;;;;;18.67;62.14;102034.69;5081276;28;45523;-91
2021/08/31 04:51:53;;;;;;;;;15.33;13.67;;;;;18.54;62.17;102016.84;5083062;28;45352;-89
2021/08/31 04:54:19;;;;;;;;;16.67;15.33;;;;;18.54;61.82;102023.06;5065039;28;47954;-90
2021/08/31 04:56:45;;;;;;;;;16.00;13.33;;;;;18.56;61.90;102025.72;5064448;28;45380;-90
2021/08/31 04:59:11;;;;;;;;;16.00;14.67;;;;;18.51;62.11;102018.63;5065305;28;45371;-90
2021/08/31 05:01:39;;;;;;;;;16.67;14.67;;;;;18.67;61.95;102033.78;5065858;28;45431;-91
2021/08/31 05:04:05;;;;;;;;;18.67;14.67;;;;;18.62;61.96;102032.00;5064192;28;47293;-92
2021/08/31 05:06:33;;;;;;;;;16.33;13.67;;;;;18.72;61.99;102046.22;5080205;28;45351;-85
2021/08/31 05:08:58;;;;;;;;;14.00;13.33;;;;;18.76;61.80;102039.16;5062236;28;45299;-87
2021/08/31 05:11:24;;;;;;;;;19.67;15.00;;;;;18.80;62.18;102042.72;5080254;28;45312;-84
2021/08/31 05:13:49;;;;;;;;;16.67;15.33;;;;;18.74;61.90;102024.94;5078815;28;47301;-85
2021/08/31 05:16:18;;;;;;;;;17.00;15.33;;;;;18.83;62.02;102043.59;5080111;28;45390;-87
2021/08/31 05:18:44;;;;;;;;;15.00;13.67;;;;;18.76;61.77;102028.50;5080369;28;45447;-89
2021/08/31 05:21:09;;;;;;;;;18.33;17.67;;;;;18.86;61.99;102043.63;5081181;28;45462;-90
2021/08/31 05:23:36;;;;;;;;;18.00;16.67;;;;;18.77;61.78;102026.72;5080765;28;45371;-88
2021/08/31 05:26:01;;;;;;;;;23.33;16.00;;;;;18.89;62.01;102052.53;5081099;28;45231;-88
2021/08/31 05:28:27;;;;;;;;;22.00;16.33;;;;;18.90;61.97;102056.94;5083859;28;45252;-87
2021/08/31 05:30:53;;;;;;;;;19.33;16.00;;;;;18.85;61.81;102052.50;5085552;28;45343;-89
2021/08/31 05:33:18;;;;;;;;;20.33;16.67;;;;;18.90;61.98;102056.94;5063015;28;45345;-89
2021/08/31 05:35:44;;;;;;;;;25.33;19.00;;;;;18.82;61.94;102052.50;5081267;28;45317;-89
2021/08/31 05:38:10;;;;;;;;;20.00;16.67;;;;;18.89;61.88;102063.19;5080998;28;45185;-89
2021/08/31 05:40:35;;;;;;;;;16.67;15.00;;;;;18.89;62.09;102057.84;5081236;28;45169;-89
2021/08/31 05:43:01;;;;;;;;;20.33;17.67;;;;;18.76;61.89;102033.84;5087720;28;46150;-91
2021/08/31 05:45:28;;;;;;;;;20.33;16.00;;;;;18.82;62.01;102063.16;5087589;27;45422;-88
2021/08/31 05:47:53;;;;;;;;;23.00;16.33;;;;;18.84;62.07;102058.72;5101994;27;45426;-92
2021/08/31 05:50:19;;;;;;;;;19.67;15.33;;;;;18.81;62.14;102061.34;5102451;27;45330;-89
2021/08/31 05:52:44;;;;;;;;;24.50;19.50;;;;;18.80;62.13;102066.69;5101397;27;46342;-85
2021/08/31 05:55:11;;;;;;;;;19.50;16.50;;;;;18.74;62.34;102057.78;5101460;27;45334;-92
2021/08/31 05:57:37;;;;;;;;;16.67;16.00;;;;;18.79;62.22;102067.56;5101437;27;45190;-92
2021/08/31 06:00:04;;;;;;;;;17.00;17.00;;;;;18.81;62.42;102073.78;5101664;27;45338;-88
2021/08/31 06:02:30;;;;;;;;;20.00;18.67;;;;;18.76;62.21;102068.47;5100230;27;45550;-90
2021/08/31 06:04:55;;;;;;;;;23.67;21.00;;;;;18.81;62.21;102077.34;5081475;27;45412;-89
2021/08/31 06:07:21;;;;;;;;;21.67;18.33;;;;;18.81;62.44;102077.34;5082081;27;45382;-88
2021/08/31 06:09:46;;;;;;;;;18.33;15.33;;;;;18.79;62.68;102073.78;5100283;27;45472;-89
2021/08/31 06:12:13;;;;;;;;;24.33;21.33;;;;;18.69;62.64;102053.31;5099980;27;45545;-89
2021/08/31 06:14:42;;;;;;;;;23.67;22.33;;;;;18.84;62.45;102076.47;5081847;27;45687;-89
2021/08/31 06:17:08;;;;;;;;;19.00;17.33;;;;;18.86;62.54;102077.38;5100017;27;45223;-89
2021/08/31 06:19:34;;;;;;;;;19.33;16.67;;;;;18.70;62.49;102057.75;5082283;27;45372;-89
2021/08/31 06:22:00;;;;;;;;;25.67;18.00;;;;;18.84;62.90;102088.03;5109043;27;46185;-89
2021/08/31 06:24:26;;;;;;;;;24.67;18.00;;;;;18.77;62.93;102075.56;5086448;27;45380;-87
2021/08/31 06:26:54;;;;;;;;;19.00;18.67;;;;;18.83;63.15;102091.56;5111285;27;45344;-88
2021/08/31 06:29:20;;;;;;;;;25.33;21.00;;;;;18.86;62.57;102088.03;5108776;27;45410;-88
2021/08/31 06:31:45;;;;;;;;;24.67;19.00;;;;;18.74;62.99;102076.41;5105694;27;45340;-88
2021/08/31 06:34:11;;;;;;;;;25.33;21.67;;;;;18.74;63.01;102080.88;5105603;27;45373;-89
2021/08/31 06:36:37;;;;;;;;;27.33;24.33;;;;;18.71;62.48;102068.44;5113688;27;45962;-91
2021/08/31 06:39:03;;;;;;;;;26.67;23.67;;;;;18.77;62.63;102086.22;5112372;27;45337;-88
2021/08/31 06:41:28;;;;;;;;;24.33;18.33;;;;;18.80;63.04;102088.91;5092327;27;47272;-89
2021/08/31 06:43:54;;;;;;;;;28.67;23.00;;;;;18.67;63.25;102068.41;5111515;27;45256;-87
2021/08/31 06:46:19;;;;;;;;;28.67;20.33;;;;;18.75;63.02;102083.53;5108522;27;45400;-89
2021/08/31 06:48:45;;;;;;;;;20.67;17.67;;;;;18.74;63.20;102075.56;5087341;27;45562;-88
2021/08/31 06:51:13;;;;;;;;;25.00;21.00;;;;;18.78;63.22;102082.69;5082034;27;47078;-88
2021/08/31 06:53:40;;;;;;;;;24.33;20.67;;;;;18.85;63.01;102083.56;5100030;27;45250;-88
2021/08/31 06:56:08;;;;;;;;;18.67;18.67;;;;;18.73;63.28;102071.09;5098784;27;45317;-88
2021/08/31 06:58:33;;;;;;;;;22.33;19.00;;;;;18.90;63.67;102094.25;5082919;27;45378;-88
2021/08/31 07:00:59;;;;;;;;;28.00;21.33;;;;;18.78;63.52;102069.34;5101235;27;45153;-88
2021/08/31 07:03:24;;;;;;;;;20.33;19.33;;;;;18.89;63.02;102090.69;5109288;27;45325;-89
2021/08/31 07:05:50;;;;;;;;;34.67;24.33;;;;;18.80;63.05;102075.59;5113772;27;45368;-88
2021/08/31 07:08:15;;;;;;;;;27.00;23.33;;;;;18.92;63.38;102087.16;5113323;27;45160;-88
2021/08/31 07:10:41;;;;;;;;;33.00;23.33;;;;;18.93;62.88;102089.81;5084582;27;48128;-88
2021/08/31 07:13:07;;;;;;;;;25.33;21.00;;;;;19.01;62.74;102096.97;5083146;27;45695;-89
2021/08/31 07:15:32;;;;;;;;;21.67;19.33;;;;;19.00;62.69;102092.50;5100777;27;45438;-89
2021/08/31 07:17:58;;;;;;;;;21.67;20.33;;;;;19.06;63.10;102101.41;5082748;27;45620;-89
2021/08/31 07:20:24;;;;;;;;;26.33;22.67;;;;;19.11;62.59;102101.44;5100271;27;45459;-88
2021/08/31 07:22:49;;;;;;;;;26.33;18.33;;;;;19.06;62.72;102087.19;5099629;27;45345;-87
2021/08/31 07:25:15;;;;;;;;;27.33;22.67;;;;;19.13;62.53;102086.34;5100250;27;45350;-89
2021/08/31 07:27:41;;;;;;;;;27.67;24.00;;;;;19.17;62.38;102085.50;5100673;27;45361;-89
2021/08/31 07:30:07;;;;;;;;;24.67;19.33;;;;;19.27;62.34;102102.41;5099962;27;46560;-88
2021/08/31 07:32:33;;;;;;;;;27.00;22.67;;;;;19.30;62.38;102090.88;5100799;27;45452;-88
2021/08/31 07:34:58;;;;;;;;;25.00;21.00;;;;;19.38;62.24;102099.78;5101192;27;45321;-88
2021/08/31 07:37:24;;;;;;;;;26.33;23.33;;;;;19.33;61.88;102081.09;5113514;27;45478;-88
2021/08/31 07:39:49;;;;;;;;;29.33;25.67;;;;;19.48;62.42;102097.13;5115116;27;45089;-89
2021/08/31 07:42:15;;;;;;;;;24.33;23.00;;;;;19.35;62.21;102073.13;5115337;27;45385;-88
2021/08/31 07:44:40;;;;;;;;;23.33;21.33;;;;;19.59;62.00;102105.13;5114532;27;44746;-88
2021/08/31 07:47:06;;;;;;;;;24.33;20.00;;;;;19.50;62.10;102074.03;5114926;27;45344;-88
2021/08/31 07:49:31;;;;;;;;;31.33;25.67;;;;;19.58;61.78;102069.59;5114165;27;45404;-89
2021/08/31 07:51:57;;;;;;;;;30.33;24.00;;;;;19.67;61.45;102093.59;5113852;27;45407;-88
2021/08/31 07:54:22;;;;;;;;;24.00;21.00;;;;;19.72;61.62;102088.25;5096089;27;45397;-88
2021/08/31 07:56:48;;;;;;;;;21.67;21.33;;;;;19.73;61.48;102090.06;5115407;27;45376;-88
2021/08/31 07:59:13;;;;;;;;;25.33;21.33;;;;;19.75;61.70;102085.63;5114896;27;45227;-88
2021/08/31 08:01:39;;;;;;;;;26.00;23.00;;;;;19.86;61.33;102096.25;5113095;27;45364;-89
2021/08/31 08:04:05;;;;;;;;;24.67;22.00;;;;;19.94;61.27;102106.06;5112420;27;45398;-87
2021/08/31 08:06:30;;;;;;;;;22.67;20.67;;;;;20.02;61.83;102115.84;5111836;27;45333;-87
2021/08/31 08:08:56;;;;;;;;;29.33;24.00;;;;;20.05;61.29;102117.63;5111589;27;46255;-89
2021/08/31 08:11:21;;;;;;;;;28.33;20.67;;;;;20.11;60.94;102122.13;5109845;27;45337;-87
2021/08/31 08:13:47;;;;;;;;;26.67;26.00;;;;;20.11;61.12;102107.00;5081845;27;45378;-89
2021/08/31 08:16:12;;;;;;;;;22.67;22.67;;;;;20.31;60.68;102121.19;5100457;27;45404;-88
2021/08/31 08:18:38;;;;;;;;;27.00;22.00;;;;;20.33;60.05;102120.31;5099739;27;46553;-89
2021/08/31 08:21:03;;;;;;;;;26.00;22.33;;;;;20.39;60.31;102119.41;5111919;27;45215;-88
2021/08/31 08:23:29;;;;;;;;;28.00;24.00;;;;;20.39;60.07;102108.72;5117588;27;45409;-88
2021/08/31 08:25:55;;;;;;;;;26.67;20.00;;;;;20.54;60.12;102112.28;5101523;27;45198;-88
2021/08/31 08:28:24;;;;;;;;;22.00;20.00;;;;;20.62;60.16;102117.59;5102370;27;46406;-87
2021/08/31 08:30:51;;;;;;;;;24.33;20.00;;;;;20.75;59.03;102116.63;5098685;27;45849;-89
2021/08/31 08:33:16;;;;;;;;;26.67;19.67;;;;;20.87;59.30;102131.75;5101812;27;45267;-89
2021/08/31 08:35:42;;;;;;;;;19.67;19.33;;;;;20.83;58.74;102116.63;5101101;27;45241;-88
2021/08/31 08:38:07;;;;;;;;;27.00;21.67;;;;;20.93;59.12;102118.38;5101710;27;45375;-89
2021/08/31 08:40:35;;;;;;;;;18.33;17.00;;;;;21.01;58.43;102120.16;5115594;27;45213;-90
2021/08/31 08:43:06;;;;;;;;;17.33;16.67;;;;;21.15;57.58;102128.13;5118429;27;44723;-87
2021/08/31 08:45:32;;;;;;;;;22.67;20.67;;;;;21.25;57.93;102135.19;5098601;27;45397;-89
2021/08/31 08:47:58;;;;;;;;;20.00;19.00;;;;;21.29;57.64;102142.31;5106720;27;45700;-89
2021/08/31 08:50:24;;;;;;;;;18.00;14.67;;;;;21.24;57.55;102124.47;5100754;27;45972;-89
2021/08/31 08:52:49;;;;;;;;;16.33;15.33;;;;;21.32;57.46;102124.47;5079768;27;45344;-89
2021/08/31 08:55:15;;;;;;;;;20.00;17.67;;;;;21.49;56.83;102148.44;5099202;27;45459;-89
2021/08/31 08:57:41;;;;;;;;;18.00;18.00;;;;;21.46;57.35;102129.72;5097461;27;46375;-89
2021/08/31 09:00:09;;;;;;;;;16.00;14.67;;;;;21.60;57.12;102140.31;5079341;27;45363;-90
2021/08/31 09:02:41;;;;;;;;;19.67;18.67;;;;;21.75;56.48;102132.22;5099687;27;45296;-88
2021/08/31 09:05:28;;;;;;;;;20.67;17.33;;;;;22.07;56.63;102148.06;5082742;27;45922;-88
2021/08/31 09:08:06;;;;;;;;;21.67;17.00;;;;;22.12;56.01;102129.28;5097880;27;45477;-88
2021/08/31 09:10:32;;;;;;;;;16.33;14.67;;;;;22.45;56.33;102145.91;5097048;27;45361;-89
2021/08/31 09:12:58;;;;;;;;;22.33;18.33;;;;;22.70;54.57;102145.69;5098104;27;45482;-88
2021/08/31 09:15:36;;;;;;;;;20.33;17.00;;;;;22.92;54.42;102148.13;5101870;27;45248;-88
2021/08/31 09:18:09;;;;;;;;;19.00;15.67;;;;;23.16;54.52;102147.84;5082318;27;46038;-88
2021/08/31 09:20:55;;;;;;;;;17.33;17.00;;;;;23.27;53.31;102134.28;5100723;27;45230;-89
2021/08/31 09:23:23;;;;;;;;;19.33;17.00;;;;;23.58;53.48;102153.53;5100650;27;45185;-89
2021/08/31 09:25:54;;;;;;;;;17.67;17.00;;;;;23.82;52.96;102146.00;5100556;27;45614;-89
2021/08/31 09:28:30;;;;;;;;;16.00;15.00;;;;;23.91;52.67;102152.13;5100488;27;46468;-89
2021/08/31 09:31:05;;;;;;;;;19.33;17.00;;;;;23.99;52.36;102143.94;5100230;27;45406;-88
2021/08/31 09:33:36;;;;;;;;;19.67;18.00;;;;;24.11;51.49;102149.13;5100618;27;45377;-88
2021/08/31 09:36:04;;;;;;;;;16.00;14.00;;;;;24.20;51.87;102149.88;5100444;27;45270;-88
2021/08/31 09:38:46;;;;;;;;;17.00;17.00;;;;;24.46;51.30;102153.91;5100460;27;45405;-88
2021/08/31 09:41:29;;;;;;;;;23.33;19.00;;;;;24.66;51.33;102141.91;5099983;27;45393;-88
2021/08/31 09:43:56;;;;;;;;;22.00;17.00;;;;;24.73;51.11;102135.47;5100162;27;45447;-88
2021/08/31 09:46:22;;;;;;;;;16.00;16.00;;;;;24.83;51.20;102138.88;5099909;27;45246;-88
2021/08/31 09:48:47;;;;;;;;;16.00;16.00;;;;;25.10;50.39;102147.31;5100151;27;45353;-88
2021/08/31 09:51:14;;;;;;;;;19.33;16.67;;;;;25.44;50.26;102148.34;5100094;27;45259;-89
2021/08/31 09:53:42;;;;;;;;;20.33;16.00;;;;;25.57;49.69;102132.81;5081873;27;45361;-88
2021/08/31 09:56:10;;;;;;;;;19.67;18.00;;;;;26.09;48.71;102150.41;5100047;27;45322;-87
2021/08/31 09:58:38;;;;;;;;;20.00;17.00;;;;;26.55;48.55;102142.94;5101395;27;45917;-87
2021/08/31 10:01:04;;;;;;;;;19.33;18.33;;;;;26.84;47.41;102148.44;5107414;27;45168;-87
2021/08/31 10:03:30;;;;;;;;;19.33;15.00;;;;;26.96;47.82;102149.00;5104540;27;45152;-87
2021/08/31 10:05:59;;;;;;;;;18.33;17.00;;;;;27.11;46.40;102153.97;5108843;27;45179;-89
2021/08/31 10:08:25;;;;;;;;;20.67;18.33;;;;;27.36;46.10;102144.22;5110596;27;46358;-88
2021/08/31 10:10:53;;;;;;;;;17.33;17.00;;;;;27.77;44.94;102162.75;5102611;27;45355;-87
2021/08/31 10:13:23;;;;;;;;;18.00;16.33;;;;;27.72;45.57;102146.66;5101523;27;45339;-87
2021/08/31 10:15:58;;;;;;;;;16.67;16.00;;;;;27.61;41.48;102138.03;5083400;27;45508;-87
2021/08/31 10:18:26;;;;;;;;;20.67;18.00;;;;;27.52;44.31;102145.50;5101346;27;46392;-89
2021/08/31 10:20:57;;;;;;;;;22.67;18.67;;;;;27.32;44.78;102154.22;5100432;27;45412;-88
2021/08/31 10:23:32;;;;;;;;;15.67;14.67;;;;;27.10;44.57;102157.59;5100421;27;45574;-88
2021/08/31 10:26:28;;;;;;;;;19.67;18.33;;;;;27.57;45.08;102163.34;5081734;27;45441;-88
2021/08/31 10:29:15;;;;;;;;;20.00;16.00;;;;;28.23;44.26;102164.81;5083553;27;48256;-88
2021/08/31 10:31:43;;;;;;;;;19.33;16.00;;;;;28.62;42.95;102158.03;5081996;27;45833;-88
2021/08/31 10:34:30;;;;;;;;;21.00;18.00;;;;;29.24;41.75;102173.81;5081480;27;45535;-89
2021/08/31 10:37:06;;;;;;;;;18.33;18.33;;;;;28.92;41.28;102154.25;5099870;27;45243;-87
2021/08/31 10:39:52;;;;;;;;;17.67;17.00;;;;;28.47;41.77;102173.00;5099361;27;46047;-87
2021/08/31 10:42:24;;;;;;;;;18.67;15.67;;;;;28.04;41.84;102170.88;5082934;27;45369;-89
2021/08/31 10:44:50;;;;;;;;;16.67;16.67;;;;;27.55;42.05;102151.72;5094060;27;45285;-88
2021/08/31 10:47:18;;;;;;;;;18.00;16.33;;;;;27.31;42.57;102147.06;5115044;27;45178;-88
2021/08/31 10:50:08;;;;;;;;;15.67;15.33;;;;;27.25;42.92;102166.13;5109465;27;45329;-88
2021/08/31 10:52:35;;;;;;;;;19.33;17.67;;;;;26.90;42.54;102148.25;5100790;27;45169;-88
2021/08/31 10:55:01;;;;;;;;;15.67;13.67;;;;;26.64;43.16;102155.28;5100766;27;45393;-87
2021/08/31 10:57:35;;;;;;;;;19.67;16.00;;;;;26.87;43.37;102169.91;5081447;27;45341;-87
2021/08/31 11:00:01;;;;;;;;;19.67;15.00;;;;;26.62;43.59;102153.53;5080946;27;46621;-88
2021/08/31 11:02:45;;;;;;;;;23.67;20.00;;;;;26.40;43.08;102164.94;5099871;27;45422;-88
2021/08/31 11:05:33;;;;;;;;;20.00;18.67;;;;;26.12;44.03;102169.22;5099793;27;45332;-88
2021/08/31 11:08:02;;;;;;;;;18.33;17.67;;;;;26.01;44.10;102166.78;5099401;27;45512;-88
2021/08/31 11:10:42;;;;;;;;;18.33;15.67;;;;;25.89;44.07;102146.44;5080379;27;46627;-88
2021/08/31 11:13:17;;;;;;;;;21.33;21.33;;;;;25.88;44.50;102159.03;5080507;27;45693;-89
2021/08/31 11:15:46;;;;;;;;;19.67;18.00;;;;;25.83;44.35;102173.50;5080550;27;45435;-88